| time (UTC) | temp C | wind direction | speed KPH | gust KPH | rain 1hr cm | rain 24hr cm | rain mn cm | humidity % | barometer mb |
| 20260510164740 | 26 | 171 | 1.6 | 3.2 | 0.00 | 0.00 | 0.00 | 42 | 1031.9 |
| 20260510164237 | 26 | 18 | 3.2 | 4.8 | 0.00 | 0.00 | 0.00 | 43 | 1031.7 |
| 20260510163732 | 26 | 221 | 3.2 | 3.2 | 0.00 | 0.00 | 0.00 | 44 | 1031.6 |
| 20260510163228 | 26 | 181 | 1.6 | 3.2 | 0.00 | 0.00 | 0.00 | 46 | 1031.8 |
| 20260510162727 | 26 | 211 | 3.2 | 4.8 | 0.00 | 0.00 | 0.00 | 43 | 1031.9 |
| 20260510162225 | 26 | 183 | 1.6 | 3.2 | 0.00 | 0.00 | 0.00 | 44 | 1032.0 |
| 20260510161721 | 26 | 204 | 3.2 | 3.2 | 0.00 | 0.00 | 0.00 | 44 | 1032.0 |
| 20260510161217 | 26 | 66 | 1.6 | 4.8 | 0.00 | 0.00 | 0.00 | 45 | 1032.0 |
| 20260510160715 | 26 | 220 | 4.8 | 4.8 | 0.00 | 0.00 | 0.00 | 45 | 1032.0 |
| 20260510160210 | 25 | 215 | 3.2 | 4.8 | 0.00 | 0.00 | 0.00 | 45 | 1031.9 |
| 20260510155706 | 25 | 192 | 1.6 | 3.2 | 0.00 | 0.00 | 0.00 | 45 | 1032.0 |
| 20260510155202 | 25 | 152 | 1.6 | 1.6 | 0.00 | 0.00 | 0.00 | 46 | 1032.1 |
| 20260510154657 | 25 | 149 | 0.0 | 1.6 | 0.00 | 0.00 | 0.00 | 46 | 1032.1 |
| 20260510154153 | 25 | 146 | 1.6 | 1.6 | 0.00 | 0.00 | 0.00 | 48 | 1032.4 |
| 20260510153648 | 25 | 109 | 1.6 | 1.6 | 0.00 | 0.00 | 0.00 | 48 | 1032.2 |
| 20260510153146 | 25 | 13 | 1.6 | 4.8 | 0.00 | 0.00 | 0.00 | 49 | 1032.3 |
| 20260510152642 | 25 | 207 | 0.0 | 3.2 | 0.00 | 0.00 | 0.00 | 53 | 1032.3 |
| 20260510152138 | 25 | 227 | 6.4 | 4.8 | 0.00 | 0.00 | 0.00 | 51 | 1032.2 |
| 20260510151635 | 25 | 153 | 1.6 | 3.2 | 0.00 | 0.00 | 0.00 | 53 | 1032.3 |
| 20260510151133 | 24 | 246 | 1.6 | 1.6 | 0.00 | 0.00 | 0.00 | 57 | 1032.0 |
| 20260510150628 | 24 | 50 | 1.6 | 1.6 | 0.00 | 0.00 | 0.00 | 56 | 1032.0 |
| 20260510150124 | 24 | 258 | 1.6 | 3.2 | 0.00 | 0.00 | 0.00 | 57 | 1032.2 |
| 20260510145620 | 24 | 182 | 1.6 | 3.2 | 0.00 | 0.00 | 0.00 | 55 | 1032.1 |
| 20260510145117 | 23 | 149 | 1.6 | 1.6 | 0.00 | 0.00 | 0.00 | 58 | 1032.0 |
| 20260510144613 | 23 | 278 | 1.6 | 1.6 | 0.00 | 0.00 | 0.00 | 55 | 1032.0 |
| 20260510144109 | 23 | 134 | 0.0 | 1.6 | 0.00 | 0.00 | 0.00 | 58 | 1032.2 |
| 20260510143605 | 23 | 11 | 1.6 | 4.8 | 0.00 | 0.00 | 0.00 | 59 | 1032.0 |
| 20260510143101 | 23 | 204 | 0.0 | 1.6 | 0.00 | 0.00 | 0.00 | 61 | 1031.9 |
| 20260510142558 | 22 | 248 | 3.2 | 4.8 | 0.00 | 0.00 | 0.00 | 61 | 1032.0 |
| 20260510142055 | 23 | 40 | 1.6 | 4.8 | 0.00 | 0.00 | 0.00 | 62 | 1032.0 |
| 20260510141552 | 22 | 24 | 6.4 | 8.0 | 0.00 | 0.00 | 0.00 | 63 | 1031.8 |
| 20260510141050 | 22 | 162 | 1.6 | 1.6 | 0.00 | 0.00 | 0.00 | 66 | 1031.9 |
| 20260510140546 | 22 | 46 | 1.6 | 1.6 | 0.00 | 0.00 | 0.00 | 67 | 1031.9 |
| 20260510140045 | 22 | 61 | 1.6 | 3.2 | 0.00 | 0.00 | 0.00 | 68 | 1032.1 |
| 20260510135541 | 21 | 44 | 1.6 | 1.6 | 0.00 | 0.00 | 0.00 | 71 | 1032.0 |
| 20260510135038 | 21 | 43 | 0.0 | 1.6 | 0.00 | 0.00 | 0.00 | 72 | 1032.1 |
| 20260510134535 | 21 | 30 | 3.2 | 3.2 | 0.00 | 0.00 | 0.00 | 72 | 1031.9 |
| 20260510134031 | 21 | 262 | 1.6 | 4.8 | 0.00 | 0.00 | 0.00 | 74 | 1031.8 |
| 20260510133527 | 21 | 235 | 0.0 | 3.2 | 0.00 | 0.00 | 0.00 | 75 | 1031.9 |
| 20260510133024 | 20 | 226 | 1.6 | 3.2 | 0.00 | 0.00 | 0.00 | 78 | 1031.9 |
| 20260510132521 | 20 | 25 | 1.6 | 3.2 | 0.00 | 0.00 | 0.00 | 78 | 1032.0 |
| 20260510132017 | 20 | 353 | 1.6 | 3.2 | 0.00 | 0.00 | 0.00 | 79 | 1031.7 |
| 20260510131515 | 20 | 236 | 0.0 | 1.6 | 0.00 | 0.00 | 0.00 | 82 | 1031.7 |
| 20260510131012 | 20 | 220 | 0.0 | 1.6 | 0.00 | 0.00 | 0.00 | 84 | 1031.7 |
| 20260510130508 | 19 | 221 | 1.6 | 1.6 | 0.00 | 0.00 | 0.00 | 86 | 1031.6 |
| 20260510130006 | 19 | 31 | 1.6 | 4.8 | 0.00 | 0.00 | 0.00 | 85 | 1031.6 |
| 20260510125502 | 18 | 220 | 0.0 | 0.0 | 0.00 | 0.00 | 0.00 | 88 | 1031.3 |
| 20260510124958 | 18 | 221 | 0.0 | 4.8 | 0.00 | 0.00 | 0.00 | 88 | 1031.5 |
| 20260510124455 | 18 | 216 | 0.0 | 1.6 | 0.00 | 0.00 | 0.00 | 89 | 1031.5 |
| 20260510123952 | 18 | 273 | 1.6 | 4.8 | 0.00 | 0.00 | 0.00 | 90 | 1031.5 |
| 20260510123447 | 18 | 216 | 0.0 | 1.6 | 0.00 | 0.00 | 0.00 | 92 | 1031.6 |
| 20260510122943 | 17 | 219 | 1.6 | 3.2 | 0.00 | 0.00 | 0.00 | 92 | 1031.4 |
| 20260510122439 | 17 | 248 | 1.6 | 3.2 | 0.00 | 0.00 | 0.00 | 93 | 1031.2 |
| 20260510121935 | 17 | 222 | 1.6 | 3.2 | 0.00 | 0.00 | 0.00 | 94 | 1031.2 |
| 20260510121433 | 17 | 222 | 0.0 | 0.0 | 0.00 | 0.00 | 0.00 | 95 | 1031.2 |
| 20260510120930 | 17 | 222 | 1.6 | 1.6 | 0.00 | 0.00 | 0.00 | 96 | 1031.2 |
| 20260510120427 | 17 | 226 | 0.0 | 0.0 | 0.00 | 0.00 | 0.00 | 96 | 1031.1 |
| 20260510115923 | 16 | 226 | 1.6 | 1.6 | 0.00 | 0.00 | 0.00 | 97 | 1031.2 |
| 20260510115420 | 16 | 226 | 1.6 | 3.2 | 0.00 | 0.00 | 0.00 | 98 | 1031.3 |
| 20260510114916 | 16 | 226 | 0.0 | 0.0 | 0.00 | 0.00 | 0.00 | 98 | 1031.3 |
| 20260510114413 | 16 | 226 | 0.0 | 0.0 | 0.00 | 0.00 | 0.00 | 98 | 1031.1 |
| 20260510113908 | 15 | 226 | 0.0 | 0.0 | 0.00 | 0.00 | 0.00 | 97 | 1030.8 |
| 20260510113404 | 15 | 226 | 0.0 | 0.0 | 0.00 | 0.00 | 0.00 | 98 | 1030.6 |
| 20260510112902 | 15 | 226 | 0.0 | 0.0 | 0.00 | 0.00 | 0.00 | 98 | 1030.8 |
| 20260510112359 | 15 | 226 | 0.0 | 0.0 | 0.00 | 0.00 | 0.00 | 98 | 1030.5 |
| 20260510111854 | 15 | 226 | 0.0 | 0.0 | 0.00 | 0.00 | 0.00 | 98 | 1030.7 |
| 20260510111351 | 15 | 226 | 0.0 | 0.0 | 0.00 | 0.00 | 0.00 | 98 | 1030.4 |
| 20260510110846 | 15 | 226 | 0.0 | 0.0 | 0.00 | 0.00 | 0.00 | 98 | 1030.5 |
| 20260510110343 | 15 | 226 | 0.0 | 0.0 | 0.00 | 0.00 | 0.00 | 98 | 1030.3 |
| 20260510105840 | 15 | 226 | 0.0 | 0.0 | 0.00 | 0.00 | 0.00 | 98 | 1030.4 |
| 20260510105339 | 15 | 226 | 1.6 | 1.6 | 0.00 | 0.00 | 0.00 | 98 | 1030.2 |
| 20260510104835 | 15 | 226 | 0.0 | 0.0 | 0.00 | 0.00 | 0.00 | 98 | 1030.1 |
| 20260510104333 | 15 | 226 | 0.0 | 0.0 | 0.00 | 0.00 | 0.00 | 98 | 1030.1 |
| 20260510103829 | 15 | 226 | 0.0 | 0.0 | 0.00 | 0.00 | 0.00 | 98 | 1029.8 |
| 20260510103326 | 15 | 226 | 0.0 | 0.0 | 0.00 | 0.00 | 0.00 | 98 | 1030.1 |
| 20260510102821 | 15 | 226 | 0.0 | 0.0 | 0.00 | 0.00 | 0.00 | 98 | 1029.9 |
| 20260510102317 | 15 | 226 | 0.0 | 0.0 | 0.00 | 0.00 | 0.00 | 98 | 1029.7 |
| 20260510101815 | 15 | 226 | 0.0 | 1.6 | 0.00 | 0.00 | 0.00 | 98 | 1029.8 |
| 20260510101313 | 15 | 226 | 0.0 | 0.0 | 0.00 | 0.00 | 0.00 | 98 | 1029.7 |
| 20260510100809 | 15 | 226 | 0.0 | 0.0 | 0.00 | 0.00 | 0.00 | 98 | 1029.7 |
| 20260510100307 | 15 | 226 | 0.0 | 0.0 | 0.00 | 0.00 | 0.00 | 98 | 1029.5 |
| 20260510095802 | 15 | 226 | 0.0 | 1.6 | 0.00 | 0.00 | 0.00 | 98 | 1029.6 |
| 20260510095257 | 15 | 226 | 0.0 | 0.0 | 0.00 | 0.00 | 0.00 | 98 | 1029.6 |
| 20260510094751 | 15 | 226 | 0.0 | 0.0 | 0.00 | 0.00 | 0.00 | 98 | 1029.6 |
| 20260510094246 | 15 | 226 | 1.6 | 1.6 | 0.00 | 0.00 | 0.00 | 98 | 1029.4 |
| 20260510093742 | 15 | 226 | 0.0 | 0.0 | 0.00 | 0.00 | 0.00 | 98 | 1029.3 |
| 20260510093240 | 15 | 226 | 1.6 | 1.6 | 0.00 | 0.00 | 0.00 | 98 | 1029.3 |
| 20260510092736 | 15 | 226 | 0.0 | 0.0 | 0.00 | 0.00 | 0.00 | 97 | 1029.4 |
| 20260510092232 | 15 | 226 | 0.0 | 0.0 | 0.00 | 0.00 | 0.00 | 97 | 1029.2 |
| 20260510091727 | 15 | 226 | 0.0 | 0.0 | 0.00 | 0.00 | 0.00 | 97 | 1028.9 |
| 20260510091225 | 15 | 226 | 1.6 | 3.2 | 0.00 | 0.00 | 0.00 | 97 | 1028.8 |
| 20260510090721 | 15 | 226 | 0.0 | 0.0 | 0.00 | 0.00 | 0.00 | 98 | 1029.0 |
| 20260510090218 | 15 | 226 | 0.0 | 0.0 | 0.00 | 0.00 | 0.00 | 98 | 1028.7 |
| 20260510085713 | 15 | 226 | 0.0 | 0.0 | 0.00 | 0.00 | 0.00 | 97 | 1028.8 |
| 20260510085208 | 15 | 226 | 0.0 | 0.0 | 0.00 | 0.00 | 0.00 | 98 | 1028.6 |
| 20260510084704 | 15 | 226 | 0.0 | 1.6 | 0.00 | 0.00 | 0.00 | 97 | 1028.7 |
| 20260510084202 | 15 | 226 | 0.0 | 0.0 | 0.00 | 0.00 | 0.00 | 97 | 1028.8 |
| 20260510083658 | 15 | 226 | 0.0 | 0.0 | 0.00 | 0.00 | 0.00 | 97 | 1028.7 |
| 20260510083155 | 15 | 226 | 0.0 | 0.0 | 0.00 | 0.00 | 0.00 | 97 | 1028.8 |
| 20260510082651 | 15 | 226 | 0.0 | 0.0 | 0.00 | 0.00 | 0.00 | 97 | 1028.7 |
| 20260510082147 | 15 | 226 | 0.0 | 0.0 | 0.00 | 0.00 | 0.00 | 97 | 1028.8 |
| 20260510081642 | 15 | 226 | 0.0 | 0.0 | 0.00 | 0.00 | 0.00 | 97 | 1028.6 |
| 20260510081138 | 15 | 226 | 0.0 | 0.0 | 0.00 | 0.00 | 0.00 | 97 | 1028.5 |
| 20260510080637 | 15 | 226 | 0.0 | 0.0 | 0.00 | 0.00 | 0.00 | 97 | 1028.6 |
| 20260510080134 | 15 | 226 | 0.0 | 0.0 | 0.00 | 0.00 | 0.00 | 97 | 1028.5 |
| 20260510075631 | 15 | 226 | 0.0 | 0.0 | 0.00 | 0.00 | 0.00 | 97 | 1028.6 |
| 20260510075129 | 15 | 226 | 0.0 | 0.0 | 0.00 | 0.00 | 0.00 | 97 | 1028.5 |
| 20260510074625 | 15 | 226 | 0.0 | 0.0 | 0.00 | 0.00 | 0.00 | 97 | 1028.6 |
| 20260510074121 | 15 | 226 | 0.0 | 0.0 | 0.00 | 0.00 | 0.00 | 97 | 1028.6 |
| 20260510073617 | 15 | 226 | 0.0 | 0.0 | 0.00 | 0.00 | 0.00 | 97 | 1028.6 |
| 20260510073114 | 15 | 226 | 0.0 | 0.0 | 0.00 | 0.00 | 0.00 | 97 | 1028.6 |
| 20260510072611 | 15 | 226 | 0.0 | 0.0 | 0.00 | 0.00 | 0.00 | 97 | 1028.4 |
| 20260510072107 | 15 | 226 | 0.0 | 0.0 | 0.00 | 0.00 | 0.00 | 97 | 1028.4 |
| 20260510071603 | 15 | 226 | 0.0 | 0.0 | 0.00 | 0.00 | 0.00 | 97 | 1028.4 |
| 20260510071101 | 15 | 226 | 0.0 | 0.0 | 0.00 | 0.00 | 0.00 | 97 | 1028.2 |
| 20260510070557 | 15 | 226 | 0.0 | 0.0 | 0.00 | 0.00 | 0.00 | 97 | 1028.3 |
| 20260510070055 | 15 | 226 | 0.0 | 0.0 | 0.00 | 0.00 | 0.00 | 97 | 1028.5 |
| 20260510065551 | 15 | 226 | 1.6 | 1.6 | 0.00 | 0.00 | 0.00 | 97 | 1028.6 |
| 20260510065047 | 15 | 226 | 0.0 | 0.0 | 0.00 | 0.00 | 0.00 | 97 | 1028.6 |
| 20260510064543 | 15 | 226 | 0.0 | 0.0 | 0.00 | 0.00 | 0.00 | 97 | 1028.6 |
| 20260510064040 | 15 | 226 | 0.0 | 0.0 | 0.00 | 0.00 | 0.00 | 97 | 1028.4 |
| 20260510063537 | 15 | 226 | 0.0 | 0.0 | 0.00 | 0.00 | 0.00 | 97 | 1028.5 |
| 20260510063034 | 15 | 226 | 0.0 | 0.0 | 0.00 | 0.00 | 0.00 | 97 | 1028.3 |
| 20260510062530 | 15 | 226 | 0.0 | 0.0 | 0.00 | 0.00 | 0.00 | 97 | 1028.3 |
| 20260510062025 | 15 | 226 | 0.0 | 0.0 | 0.00 | 0.00 | 0.00 | 97 | 1028.4 |
| 20260510061522 | 15 | 226 | 0.0 | 0.0 | 0.00 | 0.00 | 0.00 | 97 | 1028.5 |
| 20260510061019 | 15 | 226 | 0.0 | 0.0 | 0.00 | 0.00 | 0.00 | 97 | 1028.5 |
| 20260510060515 | 15 | 226 | 0.0 | 0.0 | 0.00 | 0.00 | 0.00 | 97 | 1028.6 |
| 20260510060012 | 15 | 226 | 0.0 | 0.0 | 0.00 | 0.00 | 0.00 | 97 | 1028.2 |
| 20260510055508 | 15 | 226 | 0.0 | 0.0 | 0.00 | 0.00 | 0.00 | 97 | 1028.5 |
| 20260510055006 | 15 | 226 | 0.0 | 0.0 | 0.00 | 0.00 | 0.00 | 97 | 1028.7 |
| 20260510054501 | 15 | 226 | 0.0 | 0.0 | 0.00 | 0.00 | 0.00 | 97 | 1028.8 |
| 20260510053956 | 15 | 226 | 0.0 | 0.0 | 0.00 | 0.00 | 0.00 | 97 | 1028.7 |
| 20260510053451 | 15 | 226 | 0.0 | 0.0 | 0.00 | 0.00 | 0.00 | 97 | 1028.8 |
| 20260510052948 | 15 | 226 | 0.0 | 0.0 | 0.00 | 0.00 | 0.00 | 97 | 1028.7 |
| 20260510052444 | 15 | 226 | 0.0 | 0.0 | 0.00 | 0.00 | 0.00 | 97 | 1029.0 |
| 20260510051941 | 15 | 226 | 0.0 | 0.0 | 0.00 | 0.00 | 0.00 | 97 | 1028.8 |
| 20260510051437 | 15 | 226 | 0.0 | 0.0 | 0.00 | 0.00 | 0.00 | 97 | 1028.9 |
| 20260510050933 | 15 | 226 | 1.6 | 1.6 | 0.00 | 0.00 | 0.00 | 97 | 1029.0 |
| 20260510050430 | 15 | 226 | 0.0 | 0.0 | 0.00 | 0.00 | 0.00 | 96 | 1029.2 |
| 20260510045927 | 15 | 226 | 0.0 | 0.0 | 0.00 | 0.00 | 0.00 | 96 | 1029.0 |
| 20260510045424 | 15 | 226 | 0.0 | 0.0 | 0.00 | 0.00 | 0.00 | 96 | 1029.1 |
| 20260510044921 | 15 | 226 | 0.0 | 0.0 | 0.00 | 0.00 | 0.00 | 96 | 1029.0 |
| 20260510044418 | 15 | 226 | 0.0 | 0.0 | 0.00 | 0.00 | 0.00 | 96 | 1029.3 |
| 20260510043915 | 15 | 226 | 0.0 | 0.0 | 0.00 | 0.00 | 0.00 | 96 | 1029.3 |
| 20260510043411 | 16 | 226 | 0.0 | 0.0 | 0.00 | 0.00 | 0.00 | 96 | 1029.2 |
| 20260510042909 | 16 | 226 | 0.0 | 0.0 | 0.00 | 0.00 | 0.00 | 96 | 1029.1 |
| 20260510042404 | 16 | 226 | 0.0 | 0.0 | 0.00 | 0.00 | 0.00 | 96 | 1029.0 |
| 20260510041900 | 16 | 226 | 0.0 | 0.0 | 0.00 | 0.00 | 0.00 | 96 | 1029.0 |
| 20260510041358 | 16 | 226 | 0.0 | 0.0 | 0.00 | 0.00 | 0.00 | 96 | 1029.1 |
| 20260510040855 | 16 | 226 | 0.0 | 0.0 | 0.00 | 0.00 | 0.00 | 96 | 1029.1 |
| 20260510040352 | 16 | 226 | 0.0 | 0.0 | 0.00 | 0.00 | 0.00 | 96 | 1029.1 |
| 20260510035847 | 16 | 226 | 0.0 | 0.0 | 0.00 | 0.00 | 0.00 | 96 | 1029.1 |
| 20260510035343 | 16 | 226 | 0.0 | 0.0 | 0.00 | 0.00 | 0.00 | 96 | 1029.1 |
| 20260510034839 | 16 | 226 | 0.0 | 0.0 | 0.00 | 0.00 | 0.00 | 96 | 1028.9 |
| 20260510034337 | 16 | 226 | 0.0 | 0.0 | 0.00 | 0.00 | 0.00 | 96 | 1028.8 |
| 20260510033833 | 16 | 226 | 0.0 | 0.0 | 0.00 | 0.00 | 0.00 | 96 | 1028.9 |
| 20260510033330 | 16 | 226 | 0.0 | 0.0 | 0.00 | 0.00 | 0.00 | 96 | 1028.6 |
| 20260510032827 | 16 | 226 | 0.0 | 0.0 | 0.00 | 0.00 | 0.00 | 95 | 1028.7 |
| 20260510032324 | 16 | 226 | 0.0 | 0.0 | 0.00 | 0.00 | 0.00 | 95 | 1028.9 |
| 20260510031819 | 16 | 226 | 0.0 | 0.0 | 0.00 | 0.00 | 0.00 | 95 | 1028.8 |
| 20260510031315 | 16 | 226 | 0.0 | 0.0 | 0.00 | 0.00 | 0.00 | 95 | 1028.9 |
| 20260510030809 | 16 | 226 | 0.0 | 0.0 | 0.00 | 0.00 | 0.00 | 95 | 1028.9 |
| 20260510030306 | 16 | 226 | 0.0 | 0.0 | 0.00 | 0.00 | 0.00 | 95 | 1028.6 |
| 20260510025803 | 16 | 226 | 0.0 | 0.0 | 0.00 | 0.00 | 0.00 | 95 | 1028.6 |
| 20260510025301 | 16 | 226 | 0.0 | 0.0 | 0.00 | 0.00 | 0.00 | 95 | 1028.7 |
| 20260510024757 | 16 | 226 | 0.0 | 0.0 | 0.00 | 0.00 | 0.00 | 95 | 1028.7 |
| 20260510024254 | 16 | 226 | 0.0 | 0.0 | 0.00 | 0.00 | 0.00 | 95 | 1028.7 |
| 20260510023750 | 16 | 226 | 0.0 | 0.0 | 0.00 | 0.00 | 0.00 | 95 | 1028.5 |
| 20260510023247 | 16 | 226 | 0.0 | 0.0 | 0.00 | 0.00 | 0.00 | 94 | 1028.5 |
| 20260510022744 | 16 | 226 | 0.0 | 0.0 | 0.00 | 0.00 | 0.00 | 94 | 1028.7 |
| 20260510022244 | 17 | 226 | 0.0 | 0.0 | 0.00 | 0.00 | 0.00 | 94 | 1028.5 |
| 20260510021743 | 17 | 226 | 0.0 | 0.0 | 0.00 | 0.00 | 0.00 | 94 | 1028.5 |
| 20260510021241 | 17 | 226 | 0.0 | 0.0 | 0.00 | 0.00 | 0.00 | 94 | 1028.4 |
| 20260510020736 | 17 | 226 | 0.0 | 0.0 | 0.00 | 0.00 | 0.00 | 94 | 1028.5 |
| 20260510020226 | 17 | 226 | 0.0 | 0.0 | 0.00 | 0.00 | 0.00 | 94 | 1028.4 |
| 20260510015722 | 17 | 226 | 0.0 | 0.0 | 0.00 | 0.00 | 0.00 | 94 | 1028.6 |
| 20260510015218 | 17 | 226 | 0.0 | 0.0 | 0.00 | 0.00 | 0.00 | 94 | 1028.5 |
| 20260510014714 | 17 | 226 | 0.0 | 0.0 | 0.00 | 0.00 | 0.00 | 94 | 1028.6 |
| 20260510014211 | 17 | 226 | 0.0 | 0.0 | 0.00 | 0.00 | 0.00 | 93 | 1028.5 |
| 20260510013711 | 17 | 226 | 0.0 | 0.0 | 0.00 | 0.00 | 0.00 | 93 | 1028.2 |
| 20260510013207 | 17 | 226 | 0.0 | 0.0 | 0.00 | 0.00 | 0.00 | 93 | 1028.1 |
| 20260510012702 | 17 | 226 | 0.0 | 0.0 | 0.00 | 0.00 | 0.00 | 93 | 1027.9 |
| 20260510012157 | 17 | 226 | 0.0 | 0.0 | 0.00 | 0.00 | 0.00 | 92 | 1028.0 |
| 20260510011652 | 17 | 226 | 0.0 | 0.0 | 0.00 | 0.00 | 0.00 | 92 | 1027.8 |
| 20260510011149 | 17 | 226 | 0.0 | 0.0 | 0.00 | 0.00 | 0.00 | 92 | 1027.8 |
| 20260510010644 | 17 | 226 | 0.0 | 0.0 | 0.00 | 0.00 | 0.00 | 91 | 1027.8 |
| 20260510010142 | 18 | 226 | 0.0 | 0.0 | 0.00 | 0.00 | 0.00 | 91 | 1027.6 |
| 20260510005638 | 18 | 226 | 0.0 | 0.0 | 0.00 | 0.00 | 0.00 | 90 | 1027.6 |
| 20260510005135 | 18 | 226 | 0.0 | 0.0 | 0.00 | 0.00 | 0.00 | 90 | 1027.7 |
| 20260510004633 | 18 | 226 | 0.0 | 0.0 | 0.00 | 0.00 | 0.00 | 90 | 1027.4 |
| 20260510004131 | 18 | 226 | 0.0 | 0.0 | 0.00 | 0.00 | 0.00 | 89 | 1027.5 |
| 20260510003628 | 18 | 226 | 0.0 | 0.0 | 0.00 | 0.00 | 0.00 | 88 | 1027.6 |
| 20260510003124 | 18 | 226 | 0.0 | 0.0 | 0.00 | 0.00 | 0.00 | 88 | 1027.4 |
| 20260510002624 | 18 | 226 | 0.0 | 0.0 | 0.00 | 0.00 | 0.00 | 87 | 1027.5 |
| 20260510002121 | 19 | 226 | 0.0 | 0.0 | 0.00 | 0.00 | 0.00 | 86 | 1027.5 |
| 20260510001618 | 19 | 226 | 0.0 | 0.0 | 0.00 | 0.00 | 0.00 | 85 | 1027.4 |
| 20260510001117 | 19 | 226 | 0.0 | 0.0 | 0.00 | 0.00 | 0.00 | 84 | 1027.7 |
| 20260510000616 | 20 | 226 | 0.0 | 0.0 | 0.00 | 0.00 | 0.00 | 83 | 1027.6 |
| 20260510000114 | 20 | 226 | 0.0 | 0.0 | 0.00 | 0.00 | 0.00 | 82 | 1027.5 |
| 20260509235610 | 20 | 226 | 0.0 | 0.0 | 0.00 | 0.00 | 0.00 | 81 | 1027.6 |
| 20260509235107 | 20 | 226 | 0.0 | 0.0 | 0.00 | 0.00 | 0.00 | 79 | 1027.5 |
| 20260509234603 | 21 | 226 | 0.0 | 0.0 | 0.00 | 0.00 | 0.00 | 78 | 1027.3 |
| 20260509234101 | 21 | 227 | 1.6 | 1.6 | 0.00 | 0.00 | 0.00 | 77 | 1027.2 |
| 20260509233558 | 21 | 227 | 0.0 | 1.6 | 0.00 | 0.00 | 0.00 | 75 | 1027.5 |
| 20260509233055 | 21 | 227 | 0.0 | 0.0 | 0.00 | 0.00 | 0.00 | 75 | 1027.1 |
| 20260509232552 | 21 | 227 | 0.0 | 0.0 | 0.00 | 0.00 | 0.00 | 74 | 1027.0 |
| 20260509232049 | 22 | 227 | 0.0 | 1.6 | 0.00 | 0.00 | 0.00 | 73 | 1026.8 |
| 20260509231545 | 22 | 227 | 0.0 | 1.6 | 0.00 | 0.00 | 0.00 | 72 | 1026.9 |
| 20260509231043 | 22 | 226 | 1.6 | 1.6 | 0.00 | 0.00 | 0.00 | 72 | 1027.0 |
| 20260509230539 | 22 | 233 | 0.0 | 1.6 | 0.00 | 0.00 | 0.00 | 71 | 1026.8 |
| 20260509230037 | 22 | 233 | 1.6 | 1.6 | 0.00 | 0.00 | 0.00 | 71 | 1026.7 |
| 20260509225532 | 22 | 222 | 1.6 | 3.2 | 0.00 | 0.00 | 0.00 | 70 | 1026.9 |
| 20260509225028 | 22 | 253 | 4.8 | 8.0 | 0.00 | 0.00 | 0.00 | 69 | 1026.9 |
| 20260509224524 | 22 | 226 | 3.2 | 3.2 | 0.00 | 0.00 | 0.00 | 69 | 1026.6 |
| 20260509224021 | 22 | 221 | 1.6 | 3.2 | 0.00 | 0.00 | 0.00 | 68 | 1026.7 |
| 20260509223517 | 22 | 210 | 3.2 | 3.2 | 0.00 | 0.00 | 0.00 | 68 | 1026.7 |
| 20260509223016 | 23 | 202 | 1.6 | 1.6 | 0.00 | 0.00 | 0.00 | 67 | 1026.9 |
| 20260509222511 | 23 | 217 | 3.2 | 1.6 | 0.00 | 0.00 | 0.00 | 68 | 1027.0 |
| 20260509222007 | 22 | 213 | 0.0 | 0.0 | 0.00 | 0.00 | 0.00 | 69 | 1026.7 |
| 20260509221503 | 22 | 215 | 1.6 | 1.6 | 0.00 | 0.00 | 0.00 | 69 | 1026.9 |
| 20260509220959 | 22 | 2 | 1.6 | 3.2 | 0.00 | 0.00 | 0.00 | 68 | 1027.2 |
| 20260509220455 | 22 | 238 | 3.2 | 3.2 | 0.00 | 0.00 | 0.00 | 68 | 1026.9 |
| 20260509215951 | 22 | 278 | 4.8 | 4.8 | 0.00 | 0.00 | 0.00 | 68 | 1027.0 |
| 20260509215447 | 22 | 219 | 1.6 | 3.2 | 0.00 | 0.00 | 0.00 | 68 | 1026.7 |
| 20260509214945 | 23 | 228 | 1.6 | 3.2 | 0.00 | 0.00 | 0.00 | 66 | 1026.8 |
| 20260509214442 | 23 | 204 | 1.6 | 3.2 | 0.00 | 0.00 | 0.00 | 67 | 1027.0 |
| 20260509213938 | 23 | 225 | 0.0 | 4.8 | 0.00 | 0.00 | 0.00 | 65 | 1026.6 |
| 20260509213434 | 23 | 238 | 0.0 | 9.7 | 0.00 | 0.00 | 0.00 | 65 | 1026.7 |
| 20260509212931 | 23 | 237 | 3.2 | 4.8 | 0.00 | 0.00 | 0.00 | 66 | 1026.9 |
| 20260509212429 | 22 | 228 | 4.8 | 9.7 | 0.00 | 0.00 | 0.00 | 66 | 1026.9 |
| 20260509211925 | 22 | 219 | 3.2 | 8.0 | 0.00 | 0.00 | 0.00 | 67 | 1026.8 |
| 20260509211420 | 22 | 216 | 3.2 | 8.0 | 0.00 | 0.00 | 0.00 | 68 | 1026.7 |
| 20260509210917 | 22 | 224 | 1.6 | 3.2 | 0.00 | 0.00 | 0.00 | 67 | 1026.7 |
| 20260509210414 | 22 | 234 | 3.2 | 4.8 | 0.00 | 0.00 | 0.00 | 66 | 1026.6 |
| 20260509205909 | 23 | 230 | 3.2 | 8.0 | 0.00 | 0.00 | 0.00 | 63 | 1026.9 |
| 20260509205404 | 24 | 332 | 4.8 | 8.0 | 0.00 | 0.00 | 0.00 | 61 | 1026.6 |
| 20260509204900 | 24 | 244 | 3.2 | 3.2 | 0.00 | 0.00 | 0.00 | 62 | 1026.5 |
| 20260509204357 | 23 | 225 | 3.2 | 8.0 | 0.00 | 0.00 | 0.00 | 65 | 1026.6 |
| 20260509203853 | 22 | 219 | 1.6 | 3.2 | 0.00 | 0.00 | 0.00 | 67 | 1026.6 |
| 20260509203349 | 22 | 217 | 1.6 | 3.2 | 0.00 | 0.00 | 0.00 | 68 | 1026.8 |
| 20260509202847 | 22 | 251 | 1.6 | 3.2 | 0.00 | 0.00 | 0.00 | 69 | 1026.7 |
| 20260509202342 | 22 | 236 | 3.2 | 3.2 | 0.00 | 0.00 | 0.00 | 69 | 1026.6 |
| 20260509201838 | 22 | 146 | 1.6 | 4.8 | 0.00 | 0.00 | 0.00 | 70 | 1026.7 |
| 20260509201334 | 22 | 171 | 1.6 | 4.8 | 0.00 | 0.00 | 0.00 | 71 | 1026.8 |
| 20260509200830 | 22 | 221 | 1.6 | 1.6 | 0.00 | 0.00 | 0.00 | 69 | 1026.9 |
| 20260509200326 | 22 | 214 | 1.6 | 1.6 | 0.00 | 0.00 | 0.00 | 68 | 1026.9 |
| 20260509195822 | 22 | 214 | 1.6 | 1.6 | 0.00 | 0.00 | 0.00 | 67 | 1026.9 |
| 20260509195317 | 22 | 212 | 0.0 | 3.2 | 0.00 | 0.00 | 0.00 | 65 | 1026.8 |
| 20260509194816 | 22 | 259 | 3.2 | 3.2 | 0.00 | 0.00 | 0.00 | 65 | 1026.9 |
| 20260509194313 | 22 | 227 | 1.6 | 3.2 | 0.00 | 0.00 | 0.00 | 67 | 1027.0 |
| 20260509193810 | 22 | 227 | 1.6 | 1.6 | 0.00 | 0.00 | 0.00 | 67 | 1026.9 |
| 20260509193309 | 22 | 236 | 1.6 | 3.2 | 0.00 | 0.00 | 0.00 | 67 | 1027.3 |
| 20260509192806 | 21 | 205 | 1.6 | 1.6 | 0.00 | 0.00 | 0.00 | 67 | 1027.2 |
| 20260509192305 | 21 | 245 | 3.2 | 4.8 | 0.00 | 0.00 | 0.00 | 66 | 1027.2 |
| 20260509191757 | 21 | 218 | 1.6 | 3.2 | 0.00 | 0.00 | 0.00 | 66 | 1027.3 |
| 20260509191254 | 22 | 208 | 3.2 | 3.2 | 0.00 | 0.00 | 0.00 | 66 | 1027.3 |
| 20260509190749 | 22 | 257 | 3.2 | 4.8 | 0.00 | 0.00 | 0.00 | 64 | 1027.4 |
| 20260509190247 | 22 | 164 | 0.0 | 1.6 | 0.00 | 0.00 | 0.00 | 66 | 1027.4 |
| 20260509185744 | 21 | 223 | 1.6 | 3.2 | 0.00 | 0.00 | 0.00 | 66 | 1027.3 |
| 20260509185240 | 21 | 231 | 1.6 | 3.2 | 0.00 | 0.00 | 0.00 | 67 | 1027.3 |
| 20260509184738 | 21 | 225 | 4.8 | 4.8 | 0.00 | 0.00 | 0.00 | 66 | 1027.5 |
| 20260509184235 | 21 | 234 | 4.8 | 4.8 | 0.00 | 0.00 | 0.00 | 65 | 1027.6 |
| 20260509183731 | 21 | 266 | 1.6 | 3.2 | 0.00 | 0.00 | 0.00 | 66 | 1027.5 |
| 20260509183226 | 21 | 208 | 4.8 | 9.7 | 0.00 | 0.00 | 0.00 | 64 | 1027.6 |
| 20260509182722 | 22 | 226 | 3.2 | 8.0 | 0.00 | 0.00 | 0.00 | 63 | 1027.6 |
| 20260509182220 | 22 | 314 | 1.6 | 1.6 | 0.00 | 0.00 | 0.00 | 63 | 1027.6 |
| 20260509181717 | 22 | 247 | 4.8 | 8.0 | 0.00 | 0.00 | 0.00 | 62 | 1027.6 |
| 20260509181215 | 22 | 223 | 1.6 | 3.2 | 0.00 | 0.00 | 0.00 | 63 | 1027.8 |
| 20260509180712 | 22 | 230 | 4.8 | 8.0 | 0.00 | 0.00 | 0.00 | 61 | 1027.9 |
| 20260509180208 | 22 | 214 | 3.2 | 4.8 | 0.00 | 0.00 | 0.00 | 61 | 1028.2 |
| 20260509175704 | 22 | 262 | 1.6 | 11.3 | 0.00 | 0.00 | 0.00 | 59 | 1027.9 |
| 20260509175201 | 22 | 218 | 8.0 | 9.7 | 0.00 | 0.00 | 0.00 | 59 | 1028.0 |
| 20260509174656 | 22 | 183 | 1.6 | 4.8 | 0.00 | 0.00 | 0.00 | 59 | 1028.2 |
| 20260509174151 | 22 | 232 | 1.6 | 9.7 | 0.00 | 0.00 | 0.00 | 58 | 1028.2 |
| 20260509173648 | 22 | 194 | 3.2 | 4.8 | 0.00 | 0.00 | 0.00 | 57 | 1028.1 |
| 20260509173143 | 22 | 195 | 0.0 | 8.0 | 0.00 | 0.00 | 0.00 | 57 | 1028.2 |
| 20260509172640 | 22 | 204 | 1.6 | 3.2 | 0.00 | 0.00 | 0.00 | 58 | 1028.3 |
| 20260509172136 | 22 | 260 | 4.8 | 4.8 | 0.00 | 0.00 | 0.00 | 57 | 1028.3 |
| 20260509171632 | 21 | 231 | 6.4 | 11.3 | 0.00 | 0.00 | 0.00 | 55 | 1028.4 |
| 20260509171128 | 22 | 104 | 0.0 | 3.2 | 0.00 | 0.00 | 0.00 | 55 | 1028.3 |
| 20260509170625 | 21 | 200 | 1.6 | 3.2 | 0.00 | 0.00 | 0.00 | 57 | 1028.3 |
| 20260509170121 | 21 | 256 | 4.8 | 14.5 | 0.00 | 0.00 | 0.00 | 55 | 1028.6 |
| 20260509165619 | 21 | 298 | 8.0 | 12.9 | 0.00 | 0.00 | 0.00 | 54 | 1028.5 |
| 20260509165115 | 22 | 225 | 3.2 | 8.0 | 0.00 | 0.00 | 0.00 | 56 | 1028.7 |